sensor_id;sensor_type;location;lat;lon;timestamp;pressure;altitude;pressure_sealevel;temperature;humidity
20630;BME280;17386;43.846;25.950;2022-09-13T00:00:34;100901.63;;;18.24;100.00
20630;BME280;17386;43.846;25.950;2022-09-13T00:03:00;100892.53;;;18.13;100.00
20630;BME280;17386;43.846;25.950;2022-09-13T00:05:26;100897.53;;;18.19;100.00
20630;BME280;17386;43.846;25.950;2022-09-13T00:07:51;100895.03;;;18.16;100.00
20630;BME280;17386;43.846;25.950;2022-09-13T00:10:17;100901.16;;;18.18;100.00
20630;BME280;17386;43.846;25.950;2022-09-13T00:12:42;100898.38;;;18.19;100.00
20630;BME280;17386;43.846;25.950;2022-09-13T00:15:08;100891.25;;;18.18;100.00
20630;BME280;17386;43.846;25.950;2022-09-13T00:17:33;100889.47;;;18.19;100.00
20630;BME280;17386;43.846;25.950;2022-09-13T00:19:59;100892.44;;;18.14;100.00
20630;BME280;17386;43.846;25.950;2022-09-13T00:22:26;100892.22;;;18.17;100.00
20630;BME280;17386;43.846;25.950;2022-09-13T00:24:51;100889.47;;;18.19;100.00
20630;BME280;17386;43.846;25.950;2022-09-13T00:27:17;100888.50;;;18.20;100.00
20630;BME280;17386;43.846;25.950;2022-09-13T00:29:42;100890.41;;;18.18;100.00
20630;BME280;17386;43.846;25.950;2022-09-13T00:32:08;100890.31;;;18.19;100.00
20630;BME280;17386;43.846;25.950;2022-09-13T00:34:33;100889.84;;;18.13;100.00
20630;BME280;17386;43.846;25.950;2022-09-13T00:36:58;100888.03;;;18.13;100.00
20630;BME280;17386;43.846;25.950;2022-09-13T00:39:23;100884.66;;;18.10;100.00
20630;BME280;17386;43.846;25.950;2022-09-13T00:41:49;100887.25;;;18.11;100.00
20630;BME280;17386;43.846;25.950;2022-09-13T00:47:18;100885.34;;;18.13;100.00
20630;BME280;17386;43.846;25.950;2022-09-13T00:49:46;100890.91;;;18.10;100.00
20630;BME280;17386;43.846;25.950;2022-09-13T00:52:17;100889.28;;;18.08;100.00
20630;BME280;17386;43.846;25.950;2022-09-13T00:54:48;100890.25;;;18.07;100.00
20630;BME280;17386;43.846;25.950;2022-09-13T00:57:17;100902.03;;;18.04;100.00
20630;BME280;17386;43.846;25.950;2022-09-13T00:59:50;100893.97;;;18.04;100.00
20630;BME280;17386;43.846;25.950;2022-09-13T01:02:17;100890.53;;;18.02;100.00
20630;BME280;17386;43.846;25.950;2022-09-13T01:04:44;100886.13;;;18.01;100.00
20630;BME280;17386;43.846;25.950;2022-09-13T01:07:12;100887.09;;;18.00;100.00
20630;BME280;17386;43.846;25.950;2022-09-13T01:09:41;100876.34;;;18.00;100.00
20630;BME280;17386;43.846;25.950;2022-09-13T01:14:46;100882.59;;;17.86;100.00
20630;BME280;17386;43.846;25.950;2022-09-13T01:17:13;100883.34;;;17.88;100.00
20630;BME280;17386;43.846;25.950;2022-09-13T01:19:38;100881.75;;;17.86;100.00
20630;BME280;17386;43.846;25.950;2022-09-13T01:24:54;100882.59;;;17.86;100.00
20630;BME280;17386;43.846;25.950;2022-09-13T01:27:39;100880.78;;;17.87;100.00
20630;BME280;17386;43.846;25.950;2022-09-13T01:30:16;100882.50;;;17.88;100.00
20630;BME280;17386;43.846;25.950;2022-09-13T01:48:58;100874.16;;;17.78;100.00
20630;BME280;17386;43.846;25.950;2022-09-13T01:52:19;100870.19;;;17.69;100.00
20630;BME280;17386;43.846;25.950;2022-09-13T01:54:18;100867.47;;;17.71;100.00
20630;BME280;17386;43.846;25.950;2022-09-13T01:56:59;100864.78;;;17.71;100.00
20630;BME280;17386;43.846;25.950;2022-09-13T02:02:18;100868.31;;;17.71;100.00
20630;BME280;17386;43.846;25.950;2022-09-13T02:04:49;100865.41;;;17.74;100.00
20630;BME280;17386;43.846;25.950;2022-09-13T02:07:28;100869.94;;;17.74;100.00
20630;BME280;17386;43.846;25.950;2022-09-13T02:10:02;100871.56;;;17.76;100.00
20630;BME280;17386;43.846;25.950;2022-09-13T02:12:30;100871.56;;;17.76;100.00
20630;BME280;17386;43.846;25.950;2022-09-13T02:15:07;100871.56;;;17.76;100.00
20630;BME280;17386;43.846;25.950;2022-09-13T02:17:39;100867.72;;;17.81;100.00
20630;BME280;17386;43.846;25.950;2022-09-13T02:20:19;100861.28;;;17.83;100.00
20630;BME280;17386;43.846;25.950;2022-09-13T02:22:51;100870.31;;;17.82;100.00
20630;BME280;17386;43.846;25.950;2022-09-13T02:25:21;100869.34;;;17.83;100.00
20630;BME280;17386;43.846;25.950;2022-09-13T02:27:51;100860.25;;;17.86;100.00
20630;BME280;17386;43.846;25.950;2022-09-13T02:30:18;100866.66;;;17.83;100.00
20630;BME280;17386;43.846;25.950;2022-09-13T02:32:52;100861.38;;;17.82;100.00
20630;BME280;17386;43.846;25.950;2022-09-13T02:35:34;100866.00;;;17.80;100.00
20630;BME280;17386;43.846;25.950;2022-09-13T02:38:03;100864.19;;;17.80;100.00
20630;BME280;17386;43.846;25.950;2022-09-13T02:40:36;100855.25;;;17.80;100.00
20630;BME280;17386;43.846;25.950;2022-09-13T02:43:09;100856.41;;;17.75;100.00
20630;BME280;17386;43.846;25.950;2022-09-13T02:45:46;100864.78;;;17.71;100.00
20630;BME280;17386;43.846;25.950;2022-09-13T02:49:10;100860.25;;;17.71;100.00
20630;BME280;17386;43.846;25.950;2022-09-13T02:51:42;100861.16;;;17.70;100.00
20630;BME280;17386;43.846;25.950;2022-09-13T02:59:22;100864.66;;;17.58;100.00
20630;BME280;17386;43.846;25.950;2022-09-13T03:02:18;100861.09;;;17.58;100.00
20630;BME280;17386;43.846;25.950;2022-09-13T03:04:45;100857.25;;;17.62;100.00
20630;BME280;17386;43.846;25.950;2022-09-13T03:07:12;100859.06;;;17.61;100.00
20630;BME280;17386;43.846;25.950;2022-09-13T03:09:51;100868.38;;;17.56;100.00
20630;BME280;17386;43.846;25.950;2022-09-13T03:15:08;100858.47;;;17.56;100.00
20630;BME280;17386;43.846;25.950;2022-09-13T03:17:52;100854.19;;;17.54;100.00
20630;BME280;17386;43.846;25.950;2022-09-13T03:31:12;100847.19;;;17.51;100.00
20630;BME280;17386;43.846;25.950;2022-09-13T03:33:57;100845.38;;;17.52;100.00
20630;BME280;17386;43.846;25.950;2022-09-13T03:36:34;100846.50;;;17.47;100.00
20630;BME280;17386;43.846;25.950;2022-09-13T03:39:11;100848.53;;;17.44;100.00
20630;BME280;17386;43.846;25.950;2022-09-13T03:41:44;100857.63;;;17.41;100.00
20630;BME280;17386;43.846;25.950;2022-09-13T03:44:14;100863.19;;;17.38;100.00
20630;BME280;17386;43.846;25.950;2022-09-13T03:46:46;100861.00;;;17.31;100.00
20630;BME280;17386;43.846;25.950;2022-09-13T03:49:17;100859.53;;;17.25;100.00
20630;BME280;17386;43.846;25.950;2022-09-13T03:51:45;100860.13;;;17.16;100.00
20630;BME280;17386;43.846;25.950;2022-09-13T03:54:21;100861.34;;;17.10;100.00
20630;BME280;17386;43.846;25.950;2022-09-13T03:59:36;100856.53;;;17.01;100.00
20630;BME280;17386;43.846;25.950;2022-09-13T04:02:04;100861.31;;;16.96;100.00
20630;BME280;17386;43.846;25.950;2022-09-13T04:04:30;100866.25;;;16.88;100.00
20630;BME280;17386;43.846;25.950;2022-09-13T04:06:56;100862.22;;;16.81;100.00
20630;BME280;17386;43.846;25.950;2022-09-13T04:09:22;100868.75;;;16.77;100.00
20630;BME280;17386;43.846;25.950;2022-09-13T04:11:47;100870.56;;;16.76;100.00
20630;BME280;17386;43.846;25.950;2022-09-13T04:14:13;100877.75;;;16.76;100.00
20630;BME280;17386;43.846;25.950;2022-09-13T04:16:40;100874.22;;;16.75;100.00
20630;BME280;17386;43.846;25.950;2022-09-13T04:19:05;100880.34;;;16.77;100.00
20630;BME280;17386;43.846;25.950;2022-09-13T04:21:31;100870.38;;;16.79;100.00
20630;BME280;17386;43.846;25.950;2022-09-13T04:23:56;100873.16;;;16.78;100.00
20630;BME280;17386;43.846;25.950;2022-09-13T04:26:22;100877.66;;;16.77;100.00
20630;BME280;17386;43.846;25.950;2022-09-13T04:28:47;100871.44;;;16.77;100.00
20630;BME280;17386;43.846;25.950;2022-09-13T04:31:12;100876.50;;;16.81;100.00
20630;BME280;17386;43.846;25.950;2022-09-13T04:33:38;100874.78;;;16.80;100.00
20630;BME280;17386;43.846;25.950;2022-09-13T04:36:03;100877.56;;;16.79;100.00
20630;BME280;17386;43.846;25.950;2022-09-13T04:38:29;100872.38;;;16.76;100.00
20630;BME280;17386;43.846;25.950;2022-09-13T04:40:56;100882.31;;;16.74;100.00
20630;BME280;17386;43.846;25.950;2022-09-13T04:43:22;100877.81;;;16.74;100.00
20630;BME280;17386;43.846;25.950;2022-09-13T04:45:48;100880.44;;;16.76;100.00
20630;BME280;17386;43.846;25.950;2022-09-13T04:48:14;100876.34;;;16.68;100.00
20630;BME280;17386;43.846;25.950;2022-09-13T04:50:40;100892.88;;;16.77;100.00
20630;BME280;17386;43.846;25.950;2022-09-13T04:53:05;100898.06;;;16.80;100.00
20630;BME280;17386;43.846;25.950;2022-09-13T04:55:30;100894.06;;;16.87;100.00
20630;BME280;17386;43.846;25.950;2022-09-13T04:57:56;100898.09;;;16.94;100.00
20630;BME280;17386;43.846;25.950;2022-09-13T05:00:21;100896.97;;;16.98;100.00
20630;BME280;17386;43.846;25.950;2022-09-13T05:02:47;100905.69;;;17.02;100.00
20630;BME280;17386;43.846;25.950;2022-09-13T05:05:12;100903.69;;;17.05;100.00
20630;BME280;17386;43.846;25.950;2022-09-13T05:07:38;100906.38;;;17.05;100.00
20630;BME280;17386;43.846;25.950;2022-09-13T05:10:03;100915.50;;;17.03;100.00
20630;BME280;17386;43.846;25.950;2022-09-13T05:12:29;100916.41;;;17.02;100.00
20630;BME280;17386;43.846;25.950;2022-09-13T05:14:55;100908.97;;;17.07;100.00
20630;BME280;17386;43.846;25.950;2022-09-13T05:17:20;100914.66;;;17.16;100.00
20630;BME280;17386;43.846;25.950;2022-09-13T05:19:45;100920.03;;;17.16;100.00
20630;BME280;17386;43.846;25.950;2022-09-13T05:22:11;100917.16;;;17.19;100.00
20630;BME280;17386;43.846;25.950;2022-09-13T05:24:37;100927.44;;;17.27;100.00
20630;BME280;17386;43.846;25.950;2022-09-13T05:27:02;100913.84;;;17.30;100.00
20630;BME280;17386;43.846;25.950;2022-09-13T05:29:27;100921.59;;;17.35;100.00
20630;BME280;17386;43.846;25.950;2022-09-13T05:31:53;100930.13;;;17.41;100.00
20630;BME280;17386;43.846;25.950;2022-09-13T05:34:18;100921.97;;;17.43;100.00
20630;BME280;17386;43.846;25.950;2022-09-13T05:36:44;100925.84;;;17.53;100.00
20630;BME280;17386;43.846;25.950;2022-09-13T05:39:14;100929.88;;;17.60;100.00
20630;BME280;17386;43.846;25.950;2022-09-13T05:41:41;100937.84;;;17.62;100.00
20630;BME280;17386;43.846;25.950;2022-09-13T05:44:07;100939.47;;;17.64;100.00
20630;BME280;17386;43.846;25.950;2022-09-13T05:46:33;100936.31;;;17.58;100.00
20630;BME280;17386;43.846;25.950;2022-09-13T05:48:58;100946.53;;;17.22;100.00
20630;BME280;17386;43.846;25.950;2022-09-13T05:51:24;100938.84;;;17.01;100.00
20630;BME280;17386;43.846;25.950;2022-09-13T05:53:51;100941.84;;;16.96;100.00
20630;BME280;17386;43.846;25.950;2022-09-13T05:56:28;100942.00;;;16.93;100.00
20630;BME280;17386;43.846;25.950;2022-09-13T05:58:54;100942.78;;;16.95;100.00
20630;BME280;17386;43.846;25.950;2022-09-13T06:01:22;100937.59;;;16.92;100.00
20630;BME280;17386;43.846;25.950;2022-09-13T06:03:52;100941.88;;;17.10;100.00
20630;BME280;17386;43.846;25.950;2022-09-13T06:06:18;100944.09;;;17.18;100.00
20630;BME280;17386;43.846;25.950;2022-09-13T06:08:44;100943.47;;;17.43;100.00
20630;BME280;17386;43.846;25.950;2022-09-13T06:11:11;100949.91;;;17.55;100.00
20630;BME280;17386;43.846;25.950;2022-09-13T06:13:37;100952.50;;;17.70;100.00
20630;BME280;17386;43.846;25.950;2022-09-13T06:16:08;100949.06;;;17.68;100.00
20630;BME280;17386;43.846;25.950;2022-09-13T06:18:34;100943.03;;;17.65;100.00
20630;BME280;17386;43.846;25.950;2022-09-13T06:21:02;100950.66;;;17.87;100.00
20630;BME280;17386;43.846;25.950;2022-09-13T06:23:28;100951.88;;;17.95;100.00
20630;BME280;17386;43.846;25.950;2022-09-13T06:28:28;100954.19;;;17.73;100.00
20630;BME280;17386;43.846;25.950;2022-09-13T06:31:05;100958.66;;;17.58;100.00
20630;BME280;17386;43.846;25.950;2022-09-13T06:33:31;100964.09;;;17.87;100.00
20630;BME280;17386;43.846;25.950;2022-09-13T06:36:06;100965.03;;;18.00;100.00
20630;BME280;17386;43.846;25.950;2022-09-13T06:38:31;100970.97;;;17.91;100.00
20630;BME280;17386;43.846;25.950;2022-09-13T06:43:25;100968.97;;;18.09;100.00
20630;BME280;17386;43.846;25.950;2022-09-13T06:45:50;100975.00;;;18.26;100.00
20630;BME280;17386;43.846;25.950;2022-09-13T06:48:17;100980.78;;;18.06;100.00
20630;BME280;17386;43.846;25.950;2022-09-13T06:50:42;100972.97;;;18.30;100.00
20630;BME280;17386;43.846;25.950;2022-09-13T06:53:09;100982.81;;;18.58;100.00
20630;BME280;17386;43.846;25.950;2022-09-13T06:55:35;100986.69;;;18.68;100.00
20630;BME280;17386;43.846;25.950;2022-09-13T06:58:00;100979.25;;;18.72;100.00
20630;BME280;17386;43.846;25.950;2022-09-13T07:00:25;100978.28;;;18.58;100.00
20630;BME280;17386;43.846;25.950;2022-09-13T07:02:51;100963.47;;;18.66;100.00
20630;BME280;17386;43.846;25.950;2022-09-13T07:05:17;100972.44;;;18.93;100.00
20630;BME280;17386;43.846;25.950;2022-09-13T07:07:45;100982.84;;;19.12;100.00
20630;BME280;17386;43.846;25.950;2022-09-13T07:10:10;100986.94;;;19.18;100.00
20630;BME280;17386;43.846;25.950;2022-09-13T07:12:35;100988.91;;;19.28;100.00
20630;BME280;17386;43.846;25.950;2022-09-13T07:15:01;100985.38;;;19.40;100.00
20630;BME280;17386;43.846;25.950;2022-09-13T07:17:26;100988.94;;;19.41;100.00
20630;BME280;17386;43.846;25.950;2022-09-13T07:19:52;100991.53;;;19.43;100.00
20630;BME280;17386;43.846;25.950;2022-09-13T07:22:17;100990.50;;;19.58;100.00
20630;BME280;17386;43.846;25.950;2022-09-13T07:24:42;100984.91;;;19.74;99.47
20630;BME280;17386;43.846;25.950;2022-09-13T07:27:08;101006.47;;;19.86;98.80
20630;BME280;17386;43.846;25.950;2022-09-13T07:29:33;100995.03;;;19.95;97.44
20630;BME280;17386;43.846;25.950;2022-09-13T07:31:59;101004.22;;;20.06;97.29
20630;BME280;17386;43.846;25.950;2022-09-13T07:34:25;101004.31;;;20.04;97.04
20630;BME280;17386;43.846;25.950;2022-09-13T07:36:51;101006.78;;;20.20;96.56
20630;BME280;17386;43.846;25.950;2022-09-13T07:39:17;101013.59;;;20.13;96.07
20630;BME280;17386;43.846;25.950;2022-09-13T07:41:43;101015.75;;;20.20;96.61
20630;BME280;17386;43.846;25.950;2022-09-13T07:44:10;101014.09;;;20.31;96.33
20630;BME280;17386;43.846;25.950;2022-09-13T07:46:36;101014.63;;;20.23;94.76
20630;BME280;17386;43.846;25.950;2022-09-13T07:49:04;101002.13;;;20.35;95.34
20630;BME280;17386;43.846;25.950;2022-09-13T07:51:32;101000.72;;;20.29;94.30
20630;BME280;17386;43.846;25.950;2022-09-13T07:54:02;101011.19;;;20.34;94.59
20630;BME280;17386;43.846;25.950;2022-09-13T07:56:33;101006.94;;;20.42;94.30
20630;BME280;17386;43.846;25.950;2022-09-13T07:59:02;101004.59;;;20.51;93.28
20630;BME280;17386;43.846;25.950;2022-09-13T08:01:39;101001.22;;;20.60;92.73
20630;BME280;17386;43.846;25.950;2022-09-13T08:04:07;101007.09;;;20.77;93.22
20630;BME280;17386;43.846;25.950;2022-09-13T08:06:34;100998.81;;;20.92;92.55
20630;BME280;17386;43.846;25.950;2022-09-13T08:09:00;100995.44;;;21.01;90.64
20630;BME280;17386;43.846;25.950;2022-09-13T08:11:30;100993.38;;;21.04;90.45
20630;BME280;17386;43.846;25.950;2022-09-13T08:13:57;100996.66;;;21.21;89.57
20630;BME280;17386;43.846;25.950;2022-09-13T08:16:24;100992.03;;;21.34;88.47
20630;BME280;17386;43.846;25.950;2022-09-13T08:18:51;100993.31;;;21.52;88.12
20630;BME280;17386;43.846;25.950;2022-09-13T08:21:17;100996.78;;;21.66;86.03
20630;BME280;17386;43.846;25.950;2022-09-13T08:23:43;100974.94;;;21.69;85.10
20630;BME280;17386;43.846;25.950;2022-09-13T08:26:09;100986.84;;;21.66;85.40
20630;BME280;17386;43.846;25.950;2022-09-13T08:28:36;100979.63;;;21.78;84.14
20630;BME280;17386;43.846;25.950;2022-09-13T08:31:13;100970.63;;;21.66;83.85
20630;BME280;17386;43.846;25.950;2022-09-13T08:33:46;100975.03;;;21.67;83.29
20630;BME280;17386;43.846;25.950;2022-09-13T08:36:13;100970.91;;;21.85;82.39
20630;BME280;17386;43.846;25.950;2022-09-13T08:38:43;100977.03;;;21.88;80.10
20630;BME280;17386;43.846;25.950;2022-09-13T08:44:21;100976.56;;;21.82;79.56
20630;BME280;17386;43.846;25.950;2022-09-13T08:47:03;100981.84;;;21.95;80.04
20630;BME280;17386;43.846;25.950;2022-09-13T08:49:41;100982.84;;;22.05;79.16
20630;BME280;17386;43.846;25.950;2022-09-13T08:54:40;100987.19;;;22.30;71.24
20630;BME280;17386;43.846;25.950;2022-09-13T08:57:15;100979.53;;;22.47;71.37
20630;BME280;17386;43.846;25.950;2022-09-13T08:59:57;100984.31;;;22.54;70.07
20630;BME280;17386;43.846;25.950;2022-09-13T09:05:18;100973.47;;;22.65;68.11
20630;BME280;17386;43.846;25.950;2022-09-13T09:08:05;100961.06;;;22.84;64.64
20630;BME280;17386;43.846;25.950;2022-09-13T09:10:40;100965.28;;;22.77;64.08
20630;BME280;17386;43.846;25.950;2022-09-13T09:15:53;100951.31;;;23.25;64.00
20630;BME280;17386;43.846;25.950;2022-09-13T09:18:31;100935.69;;;23.28;60.98
20630;BME280;17386;43.846;25.950;2022-09-13T09:21:00;100930.06;;;23.41;62.38
20630;BME280;17386;43.846;25.950;2022-09-13T09:26:18;100915.75;;;23.39;59.05
20630;BME280;17386;43.846;25.950;2022-09-13T09:29:16;100914.66;;;23.62;57.43
20630;BME280;17386;43.846;25.950;2022-09-13T09:35:14;100902.81;;;23.63;56.57
20630;BME280;17386;43.846;25.950;2022-09-13T09:37:51;100905.63;;;23.83;56.35
20630;BME280;17386;43.846;25.950;2022-09-13T09:40:25;100904.00;;;23.70;55.69
20630;BME280;17386;43.846;25.950;2022-09-13T09:42:51;100902.31;;;23.79;56.09
20630;BME280;17386;43.846;25.950;2022-09-13T09:45:29;100897.41;;;24.04;54.78
20630;BME280;17386;43.846;25.950;2022-09-13T09:47:59;100903.81;;;24.33;51.25
20630;BME280;17386;43.846;25.950;2022-09-13T09:50:34;100900.41;;;24.41;49.05
20630;BME280;17386;43.846;25.950;2022-09-13T09:53:15;100899.09;;;24.35;46.51
20630;BME280;17386;43.846;25.950;2022-09-13T09:55:49;100898.97;;;24.46;46.42
20630;BME280;17386;43.846;25.950;2022-09-13T09:58:36;100888.84;;;24.68;46.13
20630;BME280;17386;43.846;25.950;2022-09-13T10:01:02;100888.00;;;24.87;46.08
20630;BME280;17386;43.846;25.950;2022-09-13T10:03:31;100886.72;;;25.10;43.93
20630;BME280;17386;43.846;25.950;2022-09-13T10:06:14;100889.28;;;25.02;40.97
20630;BME280;17386;43.846;25.950;2022-09-13T10:08:53;100885.16;;;24.78;42.97
20630;BME280;17386;43.846;25.950;2022-09-13T10:11:20;100891.31;;;24.71;42.19
20630;BME280;17386;43.846;25.950;2022-09-13T10:14:00;100871.00;;;24.85;41.36
20630;BME280;17386;43.846;25.950;2022-09-13T10:16:28;100882.41;;;25.17;41.70
20630;BME280;17386;43.846;25.950;2022-09-13T10:19:15;100874.66;;;25.32;41.05
20630;BME280;17386;43.846;25.950;2022-09-13T10:21:59;100872.34;;;25.37;40.67
20630;BME280;17386;43.846;25.950;2022-09-13T10:24:26;100864.94;;;25.29;40.65
20630;BME280;17386;43.846;25.950;2022-09-13T10:26:52;100858.97;;;25.16;41.75
20630;BME280;17386;43.846;25.950;2022-09-13T10:29:18;100858.09;;;24.96;41.14
20630;BME280;17386;43.846;25.950;2022-09-13T10:31:46;100857.38;;;24.94;41.79
20630;BME280;17386;43.846;25.950;2022-09-13T10:34:25;100854.25;;;24.89;42.49
20630;BME280;17386;43.846;25.950;2022-09-13T10:39:18;100852.66;;;25.16;42.45
20630;BME280;17386;43.846;25.950;2022-09-13T10:42:08;100844.63;;;25.33;40.75
20630;BME280;17386;43.846;25.950;2022-09-13T10:44:40;100844.84;;;25.50;40.01
20630;BME280;17386;43.846;25.950;2022-09-13T10:47:28;100835.22;;;25.55;40.22
20630;BME280;17386;43.846;25.950;2022-09-13T10:49:57;100838.63;;;25.67;40.51
20630;BME280;17386;43.846;25.950;2022-09-13T10:52:33;100834.97;;;25.86;39.40
20630;BME280;17386;43.846;25.950;2022-09-13T10:57:50;100834.00;;;26.05;37.27
20630;BME280;17386;43.846;25.950;2022-09-13T11:00:24;100819.28;;;25.98;35.83
20630;BME280;17386;43.846;25.950;2022-09-13T11:05:32;100830.47;;;25.67;37.32
20630;BME280;17386;43.846;25.950;2022-09-13T11:11:14;100813.94;;;26.06;36.31
20630;BME280;17386;43.846;25.950;2022-09-13T11:24:59;100810.91;;;25.54;36.92
20630;BME280;17386;43.846;25.950;2022-09-13T11:27:39;100813.31;;;25.57;36.48
20630;BME280;17386;43.846;25.950;2022-09-13T11:30:18;100807.78;;;25.49;36.34
20630;BME280;17386;43.846;25.950;2022-09-13T11:33:49;100809.84;;;25.64;36.33
20630;BME280;17386;43.846;25.950;2022-09-13T11:45:14;100785.69;;;26.07;35.96
20630;BME280;17386;43.846;25.950;2022-09-13T11:48:30;100788.56;;;25.60;36.10
20630;BME280;17386;43.846;25.950;2022-09-13T11:56:12;100778.38;;;26.07;36.05
20630;BME280;17386;43.846;25.950;2022-09-13T11:58:47;100786.88;;;26.04;36.94
20630;BME280;17386;43.846;25.950;2022-09-13T12:01:22;100783.53;;;26.10;36.09
20630;BME280;17386;43.846;25.950;2022-09-13T12:03:59;100776.16;;;26.03;35.66
20630;BME280;17386;43.846;25.950;2022-09-13T12:06:41;100772.94;;;25.89;36.64
20630;BME280;17386;43.846;25.950;2022-09-13T12:12:10;100772.84;;;25.81;37.31
20630;BME280;17386;43.846;25.950;2022-09-13T12:14:48;100780.34;;;25.97;36.66
20630;BME280;17386;43.846;25.950;2022-09-13T12:17:38;100765.78;;;26.06;36.96
20630;BME280;17386;43.846;25.950;2022-09-13T12:20:17;100770.16;;;26.17;36.85
20630;BME280;17386;43.846;25.950;2022-09-13T12:22:46;100767.66;;;26.06;36.26
20630;BME280;17386;43.846;25.950;2022-09-13T12:25:19;100768.59;;;26.32;36.50
20630;BME280;17386;43.846;25.950;2022-09-13T12:28:15;100770.56;;;26.40;34.91
20630;BME280;17386;43.846;25.950;2022-09-13T12:30:49;100765.53;;;26.45;35.05
20630;BME280;17386;43.846;25.950;2022-09-13T12:33:16;100772.28;;;26.41;35.16
20630;BME280;17386;43.846;25.950;2022-09-13T12:45:01;100758.38;;;26.44;34.68
20630;BME280;17386;43.846;25.950;2022-09-13T12:58:31;100746.00;;;26.50;34.33
20630;BME280;17386;43.846;25.950;2022-09-13T13:03:41;100743.78;;;26.53;32.97
20630;BME280;17386;43.846;25.950;2022-09-13T13:06:40;100745.50;;;26.54;33.22
20630;BME280;17386;43.846;25.950;2022-09-13T13:12:02;100749.16;;;26.63;32.65
20630;BME280;17386;43.846;25.950;2022-09-13T13:34:00;100746.88;;;25.87;33.75
20630;BME280;17386;43.846;25.950;2022-09-13T13:36:27;100756.03;;;25.86;34.23
20630;BME280;17386;43.846;25.950;2022-09-13T13:38:55;100747.50;;;25.81;34.32
20630;BME280;17386;43.846;25.950;2022-09-13T13:44:01;100753.97;;;25.70;34.61
20630;BME280;17386;43.846;25.950;2022-09-13T13:46:50;100754.31;;;25.57;35.13
20630;BME280;17386;43.846;25.950;2022-09-13T13:59:56;100760.00;;;25.36;36.25
20630;BME280;17386;43.846;25.950;2022-09-13T14:02:39;100755.63;;;25.26;35.35
20630;BME280;17386;43.846;25.950;2022-09-13T14:05:24;100761.34;;;25.23;35.97
20630;BME280;17386;43.846;25.950;2022-09-13T14:22:24;100755.38;;;25.19;36.47
20630;BME280;17386;43.846;25.950;2022-09-13T14:24:58;100758.19;;;25.27;36.65
20630;BME280;17386;43.846;25.950;2022-09-13T14:27:39;100759.31;;;25.34;36.01
20630;BME280;17386;43.846;25.950;2022-09-13T14:30:18;100760.31;;;25.33;35.64
20630;BME280;17386;43.846;25.950;2022-09-13T14:32:46;100754.56;;;25.36;35.57
20630;BME280;17386;43.846;25.950;2022-09-13T14:35:22;100751.00;;;25.36;35.48
20630;BME280;17386;43.846;25.950;2022-09-13T14:37:48;100761.97;;;25.44;34.44
20630;BME280;17386;43.846;25.950;2022-09-13T14:40:25;100752.78;;;25.55;34.68
20630;BME280;17386;43.846;25.950;2022-09-13T14:42:54;100753.19;;;25.60;34.45
20630;BME280;17386;43.846;25.950;2022-09-13T14:50:57;100748.38;;;25.81;34.79
20630;BME280;17386;43.846;25.950;2022-09-13T14:53:27;100741.28;;;25.88;34.59
20630;BME280;17386;43.846;25.950;2022-09-13T14:56:06;100753.31;;;25.86;35.00
20630;BME280;17386;43.846;25.950;2022-09-13T14:58:52;100750.78;;;26.02;35.80
20630;BME280;17386;43.846;25.950;2022-09-13T15:01:29;100752.34;;;26.05;34.71
20630;BME280;17386;43.846;25.950;2022-09-13T15:03:57;100753.03;;;26.07;34.28
20630;BME280;17386;43.846;25.950;2022-09-13T15:06:32;100749.38;;;25.98;33.63
20630;BME280;17386;43.846;25.950;2022-09-13T15:09:27;100751.25;;;25.70;34.29
20630;BME280;17386;43.846;25.950;2022-09-13T15:17:11;100749.34;;;25.80;34.89
20630;BME280;17386;43.846;25.950;2022-09-13T15:19:39;100754.56;;;25.74;34.98
20630;BME280;17386;43.846;25.950;2022-09-13T15:24:51;100747.78;;;25.78;34.81
20630;BME280;17386;43.846;25.950;2022-09-13T15:27:32;100764.16;;;25.68;35.42
20630;BME280;17386;43.846;25.950;2022-09-13T15:30:28;100758.91;;;25.57;34.89
20630;BME280;17386;43.846;25.950;2022-09-13T15:35:39;100758.34;;;25.26;34.59
20630;BME280;17386;43.846;25.950;2022-09-13T15:38:25;100760.66;;;25.21;35.39
20630;BME280;17386;43.846;25.950;2022-09-13T15:41:12;100765.94;;;25.22;35.50
20630;BME280;17386;43.846;25.950;2022-09-13T15:43:38;100764.00;;;25.05;35.16
20630;BME280;17386;43.846;25.950;2022-09-13T15:46:05;100766.72;;;25.05;35.51
20630;BME280;17386;43.846;25.950;2022-09-13T15:48:33;100767.75;;;24.85;35.60
20630;BME280;17386;43.846;25.950;2022-09-13T15:51:08;100764.88;;;24.86;35.62
20630;BME280;17386;43.846;25.950;2022-09-13T15:53:35;100765.03;;;24.85;35.90
20630;BME280;17386;43.846;25.950;2022-09-13T15:56:02;100778.72;;;24.83;36.25
20630;BME280;17386;43.846;25.950;2022-09-13T15:58:28;100782.34;;;24.74;36.71
20630;BME280;17386;43.846;25.950;2022-09-13T16:00:54;100781.16;;;24.76;36.81
20630;BME280;17386;43.846;25.950;2022-09-13T16:03:19;100774.75;;;24.77;37.41
20630;BME280;17386;43.846;25.950;2022-09-13T16:05:44;100777.06;;;24.72;37.20
20630;BME280;17386;43.846;25.950;2022-09-13T16:08:10;100781.78;;;24.61;37.19
20630;BME280;17386;43.846;25.950;2022-09-13T16:10:36;100785.94;;;24.65;37.75
20630;BME280;17386;43.846;25.950;2022-09-13T16:13:02;100784.06;;;24.65;37.80
20630;BME280;17386;43.846;25.950;2022-09-13T16:15:28;100791.38;;;24.65;37.97